Time;durP1;ratioP1;P1;durP2;ratioP2;P2;SDS_P1;SDS_P2;PMS_P1;PMS_P2;Temp;Humidity;BMP_temperature;BMP_pressure;BME280_temperature;BME280_humidity;BME280_pressure;Samples;Min_cycle;Max_cycle;Signal;HPM_P1;HPM_P2
2021/03/22 00:01:55;;;;;;;;;;;19.90;28.30;;;;;;482474;246;1161;-68
2021/03/22 00:03:56;;;;;;;;;;;19.90;28.30;;;;;;482413;247;1109;-68
2021/03/22 00:05:57;;;;;;;;;;;19.90;28.30;;;;;;482511;244;2193;-68
2021/03/22 00:07:58;;;;;;;;;;;19.80;28.30;;;;;;482376;246;1040;-68
2021/03/22 00:10:00;;;;;;;;;;;19.80;28.30;;;;;;482477;246;1168;-68
2021/03/22 00:12:01;;;;;;;;;;;19.80;28.40;;;;;;482371;247;1096;-68
2021/03/22 00:14:02;;;;;;;;;;;19.80;28.40;;;;;;482404;247;1104;-68
2021/03/22 00:16:04;;;;;;;;;;;19.80;28.30;;;;;;482317;246;1356;-68
2021/03/22 00:18:05;;;;;;;;;;;19.80;28.40;;;;;;482452;246;1130;-69
2021/03/22 00:20:06;;;;;;;;;;;19.80;28.40;;;;;;482489;246;1104;-68
2021/03/22 00:22:07;;;;;;;;;;;19.80;28.40;;;;;;482378;247;1092;-68
2021/03/22 00:24:09;;;;;;;;;;;19.80;28.40;;;;;;482435;247;1089;-68
2021/03/22 00:26:10;;;;;;;;;;;19.80;28.50;;;;;;482456;247;2192;-68
2021/03/22 00:28:11;;;;;;;;;;;19.80;28.50;;;;;;482458;246;1146;-68
2021/03/22 00:30:13;;;;;;;;;;;19.80;28.50;;;;;;482562;245;1414;-68
2021/03/22 00:32:14;;;;;;;;;;;19.80;28.40;;;;;;482427;246;1077;-69
2021/03/22 00:34:15;;;;;;;;;;;19.80;28.50;;;;;;482440;245;980;-69
2021/03/22 00:36:16;;;;;;;;;;;19.80;28.50;;;;;;482447;246;1004;-68
2021/03/22 00:38:18;;;;;;;;;;;19.80;28.50;;;;;;482409;247;1046;-68
2021/03/22 00:40:19;;;;;;;;;;;19.90;28.40;;;;;;482401;247;1104;-68
2021/03/22 00:42:20;;;;;;;;;;;19.90;28.50;;;;;;482411;246;1238;-68
2021/03/22 00:44:21;;;;;;;;;;;19.90;28.50;;;;;;482377;246;1080;-68
2021/03/22 00:46:23;;;;;;;;;;;19.90;28.40;;;;;;482386;246;2129;-68
2021/03/22 00:48:24;;;;;;;;;;;19.90;28.50;;;;;;482470;247;1190;-68
2021/03/22 00:50:25;;;;;;;;;;;19.90;28.50;;;;;;482367;245;1228;-68
2021/03/22 00:52:27;;;;;;;;;;;19.90;28.50;;;;;;482431;245;1111;-68
2021/03/22 00:54:28;;;;;;;;;;;19.90;28.50;;;;;;482441;247;1060;-68
2021/03/22 00:56:29;;;;;;;;;;;19.90;28.50;;;;;;482310;246;1313;-68
2021/03/22 00:58:30;;;;;;;;;;;19.90;28.50;;;;;;482326;246;1069;-68
2021/03/22 01:00:32;;;;;;;;;;;19.90;28.50;;;;;;482441;246;1047;-68
2021/03/22 01:02:33;;;;;;;;;;;19.90;28.50;;;;;;482312;246;1127;-68
2021/03/22 01:04:34;;;;;;;;;;;19.90;28.60;;;;;;482645;246;1025;-68
2021/03/22 01:06:36;;;;;;;;;;;19.90;28.60;;;;;;482560;244;2148;-68
2021/03/22 01:08:37;;;;;;;;;;;19.80;28.60;;;;;;482384;247;1063;-68
2021/03/22 01:10:39;;;;;;;;;;;19.80;28.60;;;;;;482393;246;1555;-68
2021/03/22 01:12:40;;;;;;;;;;;19.80;28.60;;;;;;482450;246;1078;-68
2021/03/22 01:14:41;;;;;;;;;;;19.90;28.70;;;;;;482521;246;1063;-68
2021/03/22 01:16:42;;;;;;;;;;;19.80;28.70;;;;;;482530;244;1343;-68
2021/03/22 01:18:44;;;;;;;;;;;19.90;28.70;;;;;;482408;247;1187;-68
2021/03/22 01:20:45;;;;;;;;;;;19.90;28.60;;;;;;482432;246;1099;-68
2021/03/22 01:22:46;;;;;;;;;;;19.90;28.70;;;;;;482429;246;1273;-68
2021/03/22 01:24:47;;;;;;;;;;;19.80;28.70;;;;;;482355;247;1117;-68
2021/03/22 01:26:49;;;;;;;;;;;19.90;28.70;;;;;;482350;247;2193;-69
2021/03/22 01:28:50;;;;;;;;;;;19.80;28.70;;;;;;482577;247;1236;-68
2021/03/22 01:30:52;;;;;;;;;;;19.90;28.70;;;;;;482717;245;1092;-68
2021/03/22 01:32:53;;;;;;;;;;;19.90;28.70;;;;;;482478;246;1459;-68
2021/03/22 01:34:54;;;;;;;;;;;19.90;28.70;;;;;;482717;246;1037;-68
2021/03/22 01:36:55;;;;;;;;;;;19.90;28.70;;;;;;482654;246;1045;-69
2021/03/22 01:38:56;;;;;;;;;;;19.90;28.70;;;;;;482432;247;1069;-69
2021/03/22 01:40:58;;;;;;;;;;;19.90;28.70;;;;;;482484;247;1123;-68
2021/03/22 01:42:59;;;;;;;;;;;19.90;28.60;;;;;;482510;247;1063;-68
2021/03/22 01:45:00;;;;;;;;;;;20.00;28.60;;;;;;482508;246;1089;-68
2021/03/22 01:47:02;;;;;;;;;;;19.90;28.70;;;;;;482294;246;2214;-68
2021/03/22 01:49:04;;;;;;;;;;;19.90;28.70;;;;;;482482;246;1173;-68
2021/03/22 01:51:05;;;;;;;;;;;19.90;28.70;;;;;;482239;246;1224;-68
2021/03/22 01:53:06;;;;;;;;;;;19.90;28.80;;;;;;482418;247;1189;-68
2021/03/22 01:55:07;;;;;;;;;;;19.90;28.80;;;;;;482444;247;1071;-68
2021/03/22 01:57:09;;;;;;;;;;;19.90;28.80;;;;;;482401;247;1128;-68
2021/03/22 01:59:10;;;;;;;;;;;20.00;28.70;;;;;;482474;246;1035;-68
2021/03/22 02:01:11;;;;;;;;;;;19.90;28.70;;;;;;482394;246;1426;-68
2021/03/22 02:03:13;;;;;;;;;;;19.90;28.70;;;;;;482345;247;1177;-68
2021/03/22 02:05:14;;;;;;;;;;;19.90;28.80;;;;;;482415;246;1112;-68
2021/03/22 02:07:15;;;;;;;;;;;19.90;28.80;;;;;;482360;246;2142;-68
2021/03/22 02:09:16;;;;;;;;;;;20.00;28.80;;;;;;482543;246;1080;-68
2021/03/22 02:11:18;;;;;;;;;;;19.90;28.70;;;;;;482392;246;1249;-68
2021/03/22 02:13:19;;;;;;;;;;;19.90;28.80;;;;;;482477;247;1164;-68
2021/03/22 02:15:20;;;;;;;;;;;20.00;28.80;;;;;;482427;247;1037;-68
2021/03/22 02:17:22;;;;;;;;;;;19.90;28.80;;;;;;482281;246;1359;-69
2021/03/22 02:19:23;;;;;;;;;;;19.90;28.70;;;;;;482523;246;1214;-68
2021/03/22 02:21:24;;;;;;;;;;;20.00;28.80;;;;;;482264;247;1228;-68
2021/03/22 02:23:25;;;;;;;;;;;20.00;28.80;;;;;;482502;246;1140;-68
2021/03/22 02:25:27;;;;;;;;;;;20.00;28.80;;;;;;482392;246;1077;-68
2021/03/22 02:27:28;;;;;;;;;;;20.00;28.80;;;;;;482349;247;2200;-68
2021/03/22 02:29:29;;;;;;;;;;;19.90;28.80;;;;;;482434;246;1067;-68
2021/03/22 02:31:31;;;;;;;;;;;19.90;28.80;;;;;;482346;246;1488;-68
2021/03/22 02:33:32;;;;;;;;;;;19.90;28.80;;;;;;482428;246;1208;-68
2021/03/22 02:35:33;;;;;;;;;;;20.00;28.80;;;;;;482470;246;1146;-68
2021/03/22 02:37:34;;;;;;;;;;;19.90;28.70;;;;;;482477;247;1103;-69
2021/03/22 02:39:36;;;;;;;;;;;20.00;28.80;;;;;;482480;246;1061;-68
2021/03/22 02:41:37;;;;;;;;;;;19.90;28.80;;;;;;482381;247;1157;-68
2021/03/22 02:43:38;;;;;;;;;;;19.90;28.80;;;;;;482402;245;1108;-69
2021/03/22 02:45:39;;;;;;;;;;;19.90;28.80;;;;;;482353;247;1115;-68
2021/03/22 02:47:41;;;;;;;;;;;19.90;28.80;;;;;;482512;246;2125;-68
2021/03/22 02:49:42;;;;;;;;;;;20.00;28.80;;;;;;482438;247;1198;-68
2021/03/22 02:51:43;;;;;;;;;;;19.90;28.80;;;;;;482498;246;1288;-68
2021/03/22 02:53:44;;;;;;;;;;;19.90;28.90;;;;;;482717;246;1128;-68
2021/03/22 02:55:46;;;;;;;;;;;19.90;28.90;;;;;;482426;247;1285;-68
2021/03/22 02:57:47;;;;;;;;;;;19.90;28.90;;;;;;482474;246;1209;-68
2021/03/22 02:59:48;;;;;;;;;;;19.90;28.90;;;;;;482547;247;1079;-68
2021/03/22 03:01:50;;;;;;;;;;;19.90;28.90;;;;;;482519;246;1209;-68
2021/03/22 03:03:51;;;;;;;;;;;20.00;28.90;;;;;;482638;246;1158;-68
2021/03/22 03:05:52;;;;;;;;;;;20.00;28.80;;;;;;482533;246;1306;-68
2021/03/22 03:07:53;;;;;;;;;;;20.10;28.80;;;;;;482409;246;2102;-69
2021/03/22 03:09:55;;;;;;;;;;;20.00;28.80;;;;;;482704;246;1289;-68
2021/03/22 03:11:56;;;;;;;;;;;19.90;28.80;;;;;;482358;246;1214;-69
2021/03/22 03:13:57;;;;;;;;;;;19.80;29.00;;;;;;482492;245;1048;-68
2021/03/22 03:15:59;;;;;;;;;;;19.90;29.00;;;;;;482447;246;1055;-68
2021/03/22 03:18:00;;;;;;;;;;;19.90;29.00;;;;;;482451;247;1073;-68
2021/03/22 03:20:01;;;;;;;;;;;19.80;28.90;;;;;;482503;247;1183;-68
2021/03/22 03:22:02;;;;;;;;;;;19.90;28.90;;;;;;482348;247;1206;-68
2021/03/22 03:24:04;;;;;;;;;;;19.80;29.00;;;;;;482544;246;1077;-68
2021/03/22 03:26:05;;;;;;;;;;;19.90;29.00;;;;;;482409;246;1191;-69
2021/03/22 03:28:06;;;;;;;;;;;19.90;28.90;;;;;;482628;247;2192;-68
2021/03/22 03:30:08;;;;;;;;;;;19.90;28.90;;;;;;482539;247;1054;-68
2021/03/22 03:32:09;;;;;;;;;;;19.80;29.00;;;;;;482430;246;1465;-68
2021/03/22 03:34:10;;;;;;;;;;;19.90;29.00;;;;;;482387;247;1144;-68
2021/03/22 03:36:11;;;;;;;;;;;19.80;29.00;;;;;;482578;246;1101;-68
2021/03/22 03:38:13;;;;;;;;;;;19.90;29.00;;;;;;482402;246;1095;-68
2021/03/22 03:40:14;;;;;;;;;;;19.90;29.00;;;;;;482461;247;1091;-68
2021/03/22 03:42:15;;;;;;;;;;;19.80;29.00;;;;;;482469;246;1206;-68
2021/03/22 03:44:16;;;;;;;;;;;19.80;29.10;;;;;;482387;247;1026;-70
2021/03/22 03:46:18;;;;;;;;;;;19.90;29.00;;;;;;482418;246;1260;-68
2021/03/22 03:48:19;;;;;;;;;;;19.90;29.00;;;;;;482579;246;2162;-68
2021/03/22 03:50:20;;;;;;;;;;;20.00;28.90;;;;;;482548;247;1225;-68
2021/03/22 03:52:22;;;;;;;;;;;19.90;28.90;;;;;;482427;246;1262;-68
2021/03/22 03:54:23;;;;;;;;;;;19.90;29.00;;;;;;482447;247;1100;-68
2021/03/22 03:56:25;;;;;;;;;;;19.90;28.90;;;;;;482407;245;1251;-68
2021/03/22 03:58:26;;;;;;;;;;;19.90;28.90;;;;;;482396;246;1614;-68
2021/03/22 04:00:27;;;;;;;;;;;19.90;29.00;;;;;;482626;246;1046;-68
2021/03/22 04:02:29;;;;;;;;;;;19.90;29.00;;;;;;482374;246;1152;-68
2021/03/22 04:04:30;;;;;;;;;;;19.90;29.00;;;;;;482525;247;1075;-68
2021/03/22 04:06:31;;;;;;;;;;;19.80;29.00;;;;;;482335;246;2130;-68
2021/03/22 04:08:32;;;;;;;;;;;19.90;29.00;;;;;;482419;246;1083;-68
2021/03/22 04:10:34;;;;;;;;;;;19.90;29.00;;;;;;482380;245;1373;-68
2021/03/22 04:12:35;;;;;;;;;;;19.90;28.90;;;;;;482540;246;1139;-68
2021/03/22 04:14:36;;;;;;;;;;;20.00;28.90;;;;;;482380;246;1058;-68
2021/03/22 04:16:37;;;;;;;;;;;19.90;29.00;;;;;;482326;247;1225;-68
2021/03/22 04:18:39;;;;;;;;;;;19.90;28.90;;;;;;482475;246;1082;-68
2021/03/22 04:20:40;;;;;;;;;;;19.90;28.90;;;;;;482357;246;1258;-68
2021/03/22 04:22:41;;;;;;;;;;;19.80;28.90;;;;;;482407;246;1157;-68
2021/03/22 04:24:43;;;;;;;;;;;19.80;28.90;;;;;;482444;247;1029;-68
2021/03/22 04:26:44;;;;;;;;;;;19.90;29.00;;;;;;482509;247;2193;-68
2021/03/22 04:28:45;;;;;;;;;;;19.80;29.00;;;;;;482617;246;1053;-68
2021/03/22 04:30:46;;;;;;;;;;;19.80;29.00;;;;;;482389;247;1278;-68
2021/03/22 04:32:48;;;;;;;;;;;19.90;28.90;;;;;;482485;246;1063;-68
2021/03/22 04:34:49;;;;;;;;;;;19.90;28.90;;;;;;482402;247;1048;-68
2021/03/22 04:36:50;;;;;;;;;;;19.80;28.90;;;;;;482414;246;1038;-69
2021/03/22 04:38:51;;;;;;;;;;;19.90;28.90;;;;;;482367;247;1050;-68
2021/03/22 04:40:53;;;;;;;;;;;19.90;28.90;;;;;;482385;245;1069;-68
2021/03/22 04:42:54;;;;;;;;;;;19.80;28.90;;;;;;482426;245;1058;-68
2021/03/22 04:44:55;;;;;;;;;;;19.90;28.90;;;;;;482498;247;1072;-68
2021/03/22 04:46:57;;;;;;;;;;;19.90;28.90;;;;;;482375;247;2196;-68
2021/03/22 04:48:58;;;;;;;;;;;19.90;28.90;;;;;;482574;247;1098;-68
2021/03/22 04:50:59;;;;;;;;;;;19.90;28.80;;;;;;482344;246;1166;-68
2021/03/22 04:53:00;;;;;;;;;;;19.90;28.80;;;;;;482454;246;1086;-68
2021/03/22 04:55:02;;;;;;;;;;;19.90;28.90;;;;;;482499;247;1119;-68
2021/03/22 04:57:03;;;;;;;;;;;19.80;28.90;;;;;;482365;247;1196;-68
2021/03/22 04:59:04;;;;;;;;;;;19.90;28.90;;;;;;482477;247;1055;-68
2021/03/22 05:01:07;;;;;;;;;;;19.80;28.90;;;;;;482504;246;1196;-68
2021/03/22 05:03:07;;;;;;;;;;;19.80;28.90;;;;;;482263;246;1514;-69
2021/03/22 05:05:08;;;;;;;;;;;19.90;28.90;;;;;;482450;246;1414;-68
2021/03/22 05:07:09;;;;;;;;;;;19.90;28.90;;;;;;482324;246;2157;-68
2021/03/22 05:09:11;;;;;;;;;;;19.80;28.90;;;;;;482421;246;1050;-68
2021/03/22 05:11:12;;;;;;;;;;;19.90;28.90;;;;;;482380;244;1250;-68
2021/03/22 05:13:14;;;;;;;;;;;20.00;28.90;;;;;;482429;246;1057;-68
2021/03/22 05:15:14;;;;;;;;;;;19.90;28.90;;;;;;482352;246;1400;-68
2021/03/22 05:17:16;;;;;;;;;;;19.80;28.90;;;;;;482304;247;1133;-68
2021/03/22 05:19:17;;;;;;;;;;;19.80;29.00;;;;;;482276;247;1067;-68
2021/03/22 05:21:18;;;;;;;;;;;19.80;29.00;;;;;;482230;246;1307;-68
2021/03/22 05:23:20;;;;;;;;;;;19.80;29.00;;;;;;482317;246;1054;-68
2021/03/22 05:25:21;;;;;;;;;;;19.90;28.90;;;;;;482407;246;1053;-68
2021/03/22 05:27:22;;;;;;;;;;;19.90;28.90;;;;;;482269;247;2181;-69
2021/03/22 05:29:23;;;;;;;;;;;19.90;28.90;;;;;;482251;247;1077;-68
2021/03/22 05:31:25;;;;;;;;;;;19.80;28.90;;;;;;482327;246;1268;-68
2021/03/22 05:33:26;;;;;;;;;;;19.90;29.00;;;;;;482290;247;1047;-68
2021/03/22 05:35:27;;;;;;;;;;;19.80;29.00;;;;;;482216;246;1103;-68
2021/03/22 05:37:29;;;;;;;;;;;19.80;29.00;;;;;;482208;247;1561;-68
2021/03/22 05:39:30;;;;;;;;;;;19.80;29.00;;;;;;482452;246;1108;-68
2021/03/22 05:41:31;;;;;;;;;;;19.90;29.00;;;;;;482288;244;1278;-68
2021/03/22 05:43:32;;;;;;;;;;;19.80;29.00;;;;;;482352;246;1102;-68
2021/03/22 05:45:34;;;;;;;;;;;19.80;29.00;;;;;;482356;246;1062;-68
2021/03/22 05:47:35;;;;;;;;;;;19.80;29.00;;;;;;482265;246;2136;-68
2021/03/22 05:49:36;;;;;;;;;;;19.80;29.00;;;;;;482336;246;1104;-68
2021/03/22 05:51:38;;;;;;;;;;;19.70;29.00;;;;;;482189;246;1272;-68
2021/03/22 05:53:39;;;;;;;;;;;19.80;29.00;;;;;;482167;246;1078;-68
2021/03/22 05:55:40;;;;;;;;;;;19.80;29.00;;;;;;482078;247;1137;-68
2021/03/22 05:57:41;;;;;;;;;;;19.80;29.00;;;;;;482103;247;1230;-68
2021/03/22 05:59:43;;;;;;;;;;;19.90;28.90;;;;;;482575;246;1092;-68
2021/03/22 06:01:44;;;;;;;;;;;19.80;28.90;;;;;;482202;245;1220;-68
2021/03/22 06:03:45;;;;;;;;;;;19.80;28.90;;;;;;482178;246;1091;-68
2021/03/22 06:05:47;;;;;;;;;;;19.80;29.00;;;;;;482264;246;1265;-68
2021/03/22 06:07:48;;;;;;;;;;;19.80;29.00;;;;;;482239;246;2165;-68
2021/03/22 06:09:49;;;;;;;;;;;19.80;28.90;;;;;;482305;246;1062;-68
2021/03/22 06:11:50;;;;;;;;;;;19.80;29.00;;;;;;482033;245;1226;-68
2021/03/22 06:13:52;;;;;;;;;;;19.80;29.00;;;;;;482153;247;1059;-68
2021/03/22 06:15:53;;;;;;;;;;;19.70;29.00;;;;;;482140;247;1259;-68
2021/03/22 06:17:54;;;;;;;;;;;19.70;29.10;;;;;;482154;247;1140;-68
2021/03/22 06:19:55;;;;;;;;;;;19.80;29.10;;;;;;482225;246;1074;-68
2021/03/22 06:21:57;;;;;;;;;;;19.80;29.00;;;;;;482138;246;1127;-68
2021/03/22 06:23:58;;;;;;;;;;;19.80;29.00;;;;;;481948;246;1153;-68
2021/03/22 06:25:59;;;;;;;;;;;19.80;29.00;;;;;;482034;244;1315;-68
2021/03/22 06:28:00;;;;;;;;;;;19.80;28.90;;;;;;482009;247;2196;-68
2021/03/22 06:30:02;;;;;;;;;;;19.90;29.00;;;;;;482149;247;1036;-68
2021/03/22 06:32:03;;;;;;;;;;;19.80;28.90;;;;;;482087;245;1180;-68
2021/03/22 06:34:04;;;;;;;;;;;19.80;29.00;;;;;;482103;247;1061;-68
2021/03/22 06:36:06;;;;;;;;;;;19.80;29.00;;;;;;482131;244;1523;-68
2021/03/22 06:38:07;;;;;;;;;;;19.80;28.90;;;;;;482123;246;1079;-68
2021/03/22 06:40:08;;;;;;;;;;;19.80;29.00;;;;;;482098;246;1269;-68
2021/03/22 06:42:10;;;;;;;;;;;19.70;29.00;;;;;;482022;246;1234;-68
2021/03/22 06:44:11;;;;;;;;;;;19.80;29.00;;;;;;481923;247;1134;-68
2021/03/22 06:46:12;;;;;;;;;;;19.80;28.90;;;;;;482077;244;1274;-68
2021/03/22 06:48:13;;;;;;;;;;;19.90;28.90;;;;;;482055;246;2191;-68
2021/03/22 06:50:15;;;;;;;;;;;19.90;28.90;;;;;;481998;247;1072;-68
2021/03/22 06:52:16;;;;;;;;;;;19.90;28.90;;;;;;481946;247;1183;-68
2021/03/22 06:54:17;;;;;;;;;;;19.90;28.90;;;;;;482033;247;1063;-68
2021/03/22 06:56:19;;;;;;;;;;;19.90;28.80;;;;;;481922;244;1502;-68
2021/03/22 06:58:20;;;;;;;;;;;19.90;28.90;;;;;;481925;246;1126;-69
2021/03/22 07:00:21;;;;;;;;;;;19.90;28.80;;;;;;482011;247;1163;-68
2021/03/22 07:02:22;;;;;;;;;;;20.00;28.80;;;;;;481926;246;1243;-68
2021/03/22 07:04:24;;;;;;;;;;;20.00;28.80;;;;;;481921;246;1055;-68
2021/03/22 07:06:25;;;;;;;;;;;20.00;28.80;;;;;;481828;246;1131;-68
2021/03/22 07:08:26;;;;;;;;;;;20.00;28.80;;;;;;481918;247;2184;-68
2021/03/22 07:10:28;;;;;;;;;;;20.00;28.80;;;;;;482007;246;1479;-68
2021/03/22 07:12:30;;;;;;;;;;;20.00;28.80;;;;;;481924;246;1184;-68
2021/03/22 07:14:30;;;;;;;;;;;20.00;28.80;;;;;;481899;247;1404;-68
2021/03/22 07:16:32;;;;;;;;;;;20.00;28.80;;;;;;481692;246;1407;-68
2021/03/22 07:18:33;;;;;;;;;;;20.00;28.80;;;;;;481975;246;1188;-69
2021/03/22 07:20:34;;;;;;;;;;;20.00;28.80;;;;;;481986;246;1217;-68
2021/03/22 07:22:36;;;;;;;;;;;20.00;28.80;;;;;;481988;246;1261;-68
2021/03/22 07:24:37;;;;;;;;;;;20.10;28.80;;;;;;481726;246;1111;-68
2021/03/22 07:26:39;;;;;;;;;;;20.10;28.80;;;;;;481750;246;1472;-68
2021/03/22 07:28:41;;;;;;;;;;;20.10;28.70;;;;;;481981;247;2192;-68
2021/03/22 07:30:41;;;;;;;;;;;20.20;28.70;;;;;;481870;247;1908;-68
2021/03/22 07:32:43;;;;;;;;;;;20.10;28.60;;;;;;481995;247;1278;-68
2021/03/22 07:34:44;;;;;;;;;;;20.10;28.70;;;;;;481998;247;1377;-68
2021/03/22 07:36:45;;;;;;;;;;;20.10;28.70;;;;;;481961;244;1373;-68
2021/03/22 07:38:46;;;;;;;;;;;20.10;28.70;;;;;;482029;246;1190;-68
2021/03/22 07:40:49;;;;;;;;;;;20.10;28.70;;;;;;481898;245;1044;-68
2021/03/22 07:42:49;;;;;;;;;;;20.10;28.70;;;;;;481922;247;1348;-68
2021/03/22 07:44:50;;;;;;;;;;;20.20;28.60;;;;;;481696;246;1088;-68
2021/03/22 07:46:51;;;;;;;;;;;20.10;28.60;;;;;;481756;246;1100;-68
2021/03/22 07:48:53;;;;;;;;;;;20.10;28.50;;;;;;481600;247;2205;-68
2021/03/22 07:50:54;;;;;;;;;;;20.20;28.60;;;;;;481579;246;1086;-68
2021/03/22 07:52:55;;;;;;;;;;;20.20;28.50;;;;;;481672;245;1280;-68
2021/03/22 07:54:57;;;;;;;;;;;20.20;28.50;;;;;;481622;246;1086;-69
2021/03/22 07:56:58;;;;;;;;;;;20.30;28.50;;;;;;481550;246;1188;-68
2021/03/22 07:58:59;;;;;;;;;;;20.20;28.40;;;;;;481503;246;1058;-68
2021/03/22 08:01:01;;;;;;;;;;;20.30;28.50;;;;;;481528;246;1108;-68
2021/03/22 08:03:02;;;;;;;;;;;20.30;28.30;;;;;;481389;247;1147;-68
2021/03/22 08:05:03;;;;;;;;;;;20.40;28.40;;;;;;481400;245;1195;-68
2021/03/22 08:07:05;;;;;;;;;;;20.30;28.30;;;;;;481375;246;1109;-68
2021/03/22 08:09:06;;;;;;;;;;;20.30;28.30;;;;;;481364;246;2176;-68
2021/03/22 08:11:07;;;;;;;;;;;20.40;28.40;;;;;;481323;246;1159;-68
2021/03/22 08:13:09;;;;;;;;;;;20.30;28.30;;;;;;481472;246;1118;-68
2021/03/22 08:15:10;;;;;;;;;;;20.30;28.40;;;;;;481266;245;1145;-68
2021/03/22 08:17:11;;;;;;;;;;;20.30;28.40;;;;;;481570;247;1195;-68
2021/03/22 08:19:13;;;;;;;;;;;20.30;28.30;;;;;;481548;245;1114;-68
2021/03/22 08:21:14;;;;;;;;;;;20.40;28.40;;;;;;481521;246;1201;-68
2021/03/22 08:23:15;;;;;;;;;;;20.40;28.30;;;;;;481972;247;1086;-68
2021/03/22 08:25:17;;;;;;;;;;;20.40;28.20;;;;;;482122;247;1444;-68
2021/03/22 08:27:18;;;;;;;;;;;20.50;28.20;;;;;;481652;246;1254;-68
2021/03/22 08:29:19;;;;;;;;;;;20.40;28.30;;;;;;481541;247;2212;-68
2021/03/22 08:31:20;;;;;;;;;;;20.40;28.30;;;;;;481639;246;1326;-68
2021/03/22 08:33:22;;;;;;;;;;;20.40;28.40;;;;;;481997;246;835;-68
2021/03/22 08:35:23;;;;;;;;;;;20.30;28.40;;;;;;481139;246;1383;-68
2021/03/22 08:37:24;;;;;;;;;;;20.40;28.40;;;;;;481640;246;782;-68
2021/03/22 08:39:25;;;;;;;;;;;20.40;28.30;;;;;;481873;247;1089;-68
2021/03/22 08:41:28;;;;;;;;;;;20.40;28.30;;;;;;482106;247;802;-68
2021/03/22 08:43:28;;;;;;;;;;;20.40;28.30;;;;;;481472;247;1509;-68
2021/03/22 08:45:29;;;;;;;;;;;20.40;28.30;;;;;;481534;246;832;-68
2021/03/22 08:47:31;;;;;;;;;;;20.40;28.30;;;;;;482051;247;788;-68
2021/03/22 08:49:32;;;;;;;;;;;20.40;28.40;;;;;;482072;246;2201;-68
2021/03/22 08:51:33;;;;;;;;;;;20.40;28.40;;;;;;481963;247;802;-68
2021/03/22 08:53:34;;;;;;;;;;;20.40;28.40;;;;;;481982;246;1321;-68
2021/03/22 08:55:36;;;;;;;;;;;20.50;28.30;;;;;;481597;245;811;-68
2021/03/22 08:57:37;;;;;;;;;;;20.40;28.30;;;;;;481908;247;798;-68
2021/03/22 08:59:38;;;;;;;;;;;20.50;28.30;;;;;;481182;246;815;-68
2021/03/22 09:01:40;;;;;;;;;;;20.40;28.30;;;;;;482019;246;710;-68
2021/03/22 09:03:41;;;;;;;;;;;20.40;28.30;;;;;;482082;246;802;-68
2021/03/22 09:05:42;;;;;;;;;;;20.40;28.30;;;;;;482125;247;887;-68
2021/03/22 09:07:43;;;;;;;;;;;20.50;28.30;;;;;;481844;247;859;-68
2021/03/22 09:09:45;;;;;;;;;;;20.50;28.30;;;;;;481517;247;2185;-68
2021/03/22 09:11:46;;;;;;;;;;;20.50;28.30;;;;;;481755;246;740;-68
2021/03/22 09:13:47;;;;;;;;;;;20.50;28.30;;;;;;481403;247;780;-68
2021/03/22 09:15:49;;;;;;;;;;;20.40;28.30;;;;;;482169;246;863;-68
2021/03/22 09:17:50;;;;;;;;;;;20.50;28.30;;;;;;481993;246;858;-68
2021/03/22 09:19:51;;;;;;;;;;;20.50;28.30;;;;;;481402;247;756;-68
2021/03/22 09:21:53;;;;;;;;;;;20.50;28.30;;;;;;481870;247;766;-68
2021/03/22 09:23:54;;;;;;;;;;;20.50;28.30;;;;;;481947;246;1245;-68
2021/03/22 09:25:56;;;;;;;;;;;20.60;28.30;;;;;;482010;245;777;-68
2021/03/22 09:27:57;;;;;;;;;;;20.60;28.30;;;;;;481497;245;828;-68
2021/03/22 09:29:58;;;;;;;;;;;20.50;28.20;;;;;;481517;245;2241;-68
2021/03/22 09:31:59;;;;;;;;;;;20.60;28.30;;;;;;481954;246;810;-68
2021/03/22 09:34:00;;;;;;;;;;;20.60;28.20;;;;;;481904;247;1189;-68
2021/03/22 09:36:02;;;;;;;;;;;20.50;28.20;;;;;;481750;246;787;-68
2021/03/22 09:38:03;;;;;;;;;;;20.60;28.20;;;;;;481577;247;1375;-68
2021/03/22 09:40:04;;;;;;;;;;;20.70;28.10;;;;;;481684;246;1099;-68
2021/03/22 09:42:05;;;;;;;;;;;20.60;28.10;;;;;;481164;247;1266;-68
2021/03/22 09:44:07;;;;;;;;;;;20.60;28.10;;;;;;481924;247;768;-68
2021/03/22 09:46:08;;;;;;;;;;;20.60;28.10;;;;;;481928;246;1488;-68
2021/03/22 09:48:09;;;;;;;;;;;20.60;28.10;;;;;;481904;245;963;-68
2021/03/22 09:50:11;;;;;;;;;;;20.60;28.10;;;;;;481939;247;2188;-68
2021/03/22 09:52:12;;;;;;;;;;;20.60;28.10;;;;;;481827;246;1107;-68
2021/03/22 09:54:13;;;;;;;;;;;20.60;28.10;;;;;;481561;246;1059;-68
2021/03/22 09:56:14;;;;;;;;;;;20.60;28.00;;;;;;481116;247;1470;-68
2021/03/22 09:58:16;;;;;;;;;;;20.60;28.10;;;;;;481724;247;1220;-68
2021/03/22 10:00:17;;;;;;;;;;;20.60;28.10;;;;;;481473;246;785;-68
2021/03/22 10:02:18;;;;;;;;;;;20.50;28.10;;;;;;481465;247;1133;-69
2021/03/22 10:04:22;;;;;;;;;;;20.60;28.10;;;;;;481798;247;1094;-67
2021/03/22 10:06:21;;;;;;;;;;;20.60;28.10;;;;;;481985;247;1547;-67
2021/03/22 10:08:22;;;;;;;;;;;20.60;28.00;;;;;;481937;247;1083;-67
2021/03/22 10:10:24;;;;;;;;;;;20.50;28.10;;;;;;482048;246;2192;-67
2021/03/22 10:12:25;;;;;;;;;;;20.50;28.00;;;;;;481976;246;1229;-67
2021/03/22 10:14:26;;;;;;;;;;;20.40;28.10;;;;;;481810;247;1152;-67
2021/03/22 10:16:27;;;;;;;;;;;20.40;28.10;;;;;;481415;246;1156;-68
2021/03/22 10:18:29;;;;;;;;;;;20.40;28.10;;;;;;481268;247;1077;-69
2021/03/22 10:20:31;;;;;;;;;;;20.40;28.10;;;;;;481291;246;1242;-68
2021/03/22 10:22:32;;;;;;;;;;;20.40;28.20;;;;;;481614;245;1273;-69
2021/03/22 10:24:33;;;;;;;;;;;20.40;28.10;;;;;;482046;246;1150;-68
2021/03/22 10:26:35;;;;;;;;;;;20.50;28.10;;;;;;481613;247;1305;-68
2021/03/22 10:28:39;;;;;;;;;;;20.60;28.10;;;;;;481412;247;2208;-68
2021/03/22 10:30:37;;;;;;;;;;;20.60;28.10;;;;;;482121;245;1632;-68
2021/03/22 10:32:39;;;;;;;;;;;20.60;28.10;;;;;;481849;246;1244;-68
2021/03/22 10:34:40;;;;;;;;;;;20.60;28.20;;;;;;481905;247;818;-68
2021/03/22 10:36:41;;;;;;;;;;;20.50;28.20;;;;;;481545;244;1519;-69
2021/03/22 10:38:42;;;;;;;;;;;20.50;28.20;;;;;;482014;247;783;-68
2021/03/22 10:40:44;;;;;;;;;;;20.60;28.20;;;;;;481864;245;1046;-68
2021/03/22 10:42:45;;;;;;;;;;;20.60;28.20;;;;;;482033;247;778;-68
2021/03/22 10:44:46;;;;;;;;;;;20.60;28.20;;;;;;482018;246;802;-68
2021/03/22 10:46:48;;;;;;;;;;;20.60;28.20;;;;;;482074;243;1419;-68
2021/03/22 10:48:49;;;;;;;;;;;20.60;28.30;;;;;;482059;247;2204;-69
2021/03/22 10:50:50;;;;;;;;;;;20.60;28.20;;;;;;481904;246;1118;-68
2021/03/22 10:52:51;;;;;;;;;;;20.60;28.30;;;;;;481548;246;1358;-68
2021/03/22 10:54:53;;;;;;;;;;;20.60;28.30;;;;;;481339;246;1222;-69
2021/03/22 10:56:54;;;;;;;;;;;20.60;28.30;;;;;;481267;246;1451;-69
2021/03/22 10:58:55;;;;;;;;;;;20.50;28.40;;;;;;481459;246;1292;-69
2021/03/22 11:00:57;;;;;;;;;;;20.60;28.40;;;;;;481528;246;1242;-68
2021/03/22 11:02:59;;;;;;;;;;;20.70;28.40;;;;;;481456;247;1117;-68
2021/03/22 11:04:59;;;;;;;;;;;20.70;28.40;;;;;;481293;246;1245;-68
2021/03/22 11:07:00;;;;;;;;;;;20.70;28.40;;;;;;481287;247;1233;-68
2021/03/22 11:09:03;;;;;;;;;;;20.60;28.40;;;;;;481478;247;2205;-68
2021/03/22 11:11:03;;;;;;;;;;;20.60;28.40;;;;;;481502;246;1255;-68
2021/03/22 11:13:04;;;;;;;;;;;20.60;28.40;;;;;;481458;247;1156;-68
2021/03/22 11:15:06;;;;;;;;;;;20.80;28.40;;;;;;481219;245;1091;-68
2021/03/22 11:17:07;;;;;;;;;;;20.70;28.30;;;;;;481316;247;1212;-68
2021/03/22 11:19:08;;;;;;;;;;;20.70;28.40;;;;;;481804;246;1127;-69
2021/03/22 11:21:09;;;;;;;;;;;20.70;28.50;;;;;;481655;245;1288;-68
2021/03/22 11:23:11;;;;;;;;;;;20.60;28.50;;;;;;481732;246;1117;-68
2021/03/22 11:25:12;;;;;;;;;;;20.60;28.60;;;;;;481432;245;1311;-68
2021/03/22 11:27:13;;;;;;;;;;;20.60;28.50;;;;;;481410;245;1193;-68
2021/03/22 11:29:15;;;;;;;;;;;20.60;28.50;;;;;;481477;247;2187;-68
2021/03/22 11:31:16;;;;;;;;;;;20.60;28.50;;;;;;481602;245;1508;-68
2021/03/22 11:33:17;;;;;;;;;;;20.60;28.50;;;;;;481488;245;1110;-68
2021/03/22 11:35:18;;;;;;;;;;;20.60;28.50;;;;;;481555;246;1123;-68
2021/03/22 11:37:20;;;;;;;;;;;20.70;28.50;;;;;;481376;247;1232;-68
2021/03/22 11:39:23;;;;;;;;;;;20.70;28.40;;;;;;481498;246;1324;-68
2021/03/22 11:41:22;;;;;;;;;;;20.70;28.30;;;;;;481282;247;1669;-68
2021/03/22 11:43:24;;;;;;;;;;;20.60;28.30;;;;;;481358;247;1112;-68
2021/03/22 11:45:25;;;;;;;;;;;20.70;28.30;;;;;;481178;247;1117;-68
2021/03/22 11:47:26;;;;;;;;;;;20.70;28.20;;;;;;481608;247;1408;-68
2021/03/22 11:49:27;;;;;;;;;;;20.70;28.20;;;;;;482186;246;2196;-68
2021/03/22 11:51:29;;;;;;;;;;;20.70;28.10;;;;;;482065;244;1193;-68
2021/03/22 11:53:30;;;;;;;;;;;20.70;28.10;;;;;;482305;246;1089;-68
2021/03/22 11:55:31;;;;;;;;;;;20.60;28.00;;;;;;481926;246;1114;-69
2021/03/22 11:57:32;;;;;;;;;;;20.60;28.20;;;;;;481869;246;1091;-69